sensor_id;sensor_type;location;lat;lon;timestamp;P1;durP1;ratioP1;P2;durP2;ratioP2
801;SDS011;383;48.766;9.270;2023-08-06T00:00:38;15.30;;;8.67;;
801;SDS011;383;48.766;9.270;2023-08-06T00:03:05;14.10;;;9.27;;
801;SDS011;383;48.766;9.270;2023-08-06T00:05:31;23.23;;;10.10;;
801;SDS011;383;48.766;9.270;2023-08-06T00:07:57;11.73;;;8.53;;
801;SDS011;383;48.766;9.270;2023-08-06T00:10:24;12.47;;;7.87;;
801;SDS011;383;48.766;9.270;2023-08-06T00:12:51;11.97;;;7.60;;
801;SDS011;383;48.766;9.270;2023-08-06T00:15:19;16.87;;;9.60;;
801;SDS011;383;48.766;9.270;2023-08-06T00:17:46;9.17;;;6.67;;
801;SDS011;383;48.766;9.270;2023-08-06T00:20:12;14.40;;;7.67;;
801;SDS011;383;48.766;9.270;2023-08-06T00:22:39;12.20;;;7.33;;
801;SDS011;383;48.766;9.270;2023-08-06T00:25:06;13.07;;;7.87;;
801;SDS011;383;48.766;9.270;2023-08-06T00:27:33;11.80;;;8.07;;
801;SDS011;383;48.766;9.270;2023-08-06T00:30:00;11.23;;;7.60;;
801;SDS011;383;48.766;9.270;2023-08-06T00:32:28;13.17;;;8.40;;
801;SDS011;383;48.766;9.270;2023-08-06T00:34:54;10.47;;;7.33;;
801;SDS011;383;48.766;9.270;2023-08-06T00:37:21;14.40;;;7.63;;
801;SDS011;383;48.766;9.270;2023-08-06T00:39:48;12.63;;;7.70;;
801;SDS011;383;48.766;9.270;2023-08-06T00:42:15;15.90;;;8.20;;
801;SDS011;383;48.766;9.270;2023-08-06T00:44:45;11.00;;;7.50;;
801;SDS011;383;48.766;9.270;2023-08-06T00:47:12;11.97;;;8.13;;
801;SDS011;383;48.766;9.270;2023-08-06T00:49:40;11.37;;;7.00;;
801;SDS011;383;48.766;9.270;2023-08-06T00:52:07;13.10;;;8.30;;
801;SDS011;383;48.766;9.270;2023-08-06T00:54:34;13.90;;;8.37;;
801;SDS011;383;48.766;9.270;2023-08-06T00:57:02;12.60;;;7.87;;
801;SDS011;383;48.766;9.270;2023-08-06T00:59:30;14.80;;;8.07;;
801;SDS011;383;48.766;9.270;2023-08-06T01:01:57;14.23;;;8.60;;
801;SDS011;383;48.766;9.270;2023-08-06T01:04:24;14.60;;;7.93;;
801;SDS011;383;48.766;9.270;2023-08-06T01:06:55;12.47;;;7.23;;
801;SDS011;383;48.766;9.270;2023-08-06T01:09:31;12.00;;;7.37;;
801;SDS011;383;48.766;9.270;2023-08-06T01:12:06;12.40;;;7.70;;
801;SDS011;383;48.766;9.270;2023-08-06T01:14:37;12.70;;;7.47;;
801;SDS011;383;48.766;9.270;2023-08-06T01:17:13;14.03;;;7.70;;
801;SDS011;383;48.766;9.270;2023-08-06T01:19:41;10.70;;;6.80;;
801;SDS011;383;48.766;9.270;2023-08-06T01:22:09;12.03;;;7.07;;
801;SDS011;383;48.766;9.270;2023-08-06T01:24:35;11.37;;;7.37;;
801;SDS011;383;48.766;9.270;2023-08-06T01:27:03;12.83;;;7.20;;
801;SDS011;383;48.766;9.270;2023-08-06T01:29:37;14.07;;;6.67;;
801;SDS011;383;48.766;9.270;2023-08-06T01:32:08;11.77;;;7.37;;
801;SDS011;383;48.766;9.270;2023-08-06T01:34:36;11.10;;;7.30;;
801;SDS011;383;48.766;9.270;2023-08-06T01:37:05;14.40;;;7.70;;
801;SDS011;383;48.766;9.270;2023-08-06T01:39:34;15.27;;;9.27;;
801;SDS011;383;48.766;9.270;2023-08-06T01:42:00;11.50;;;8.40;;
801;SDS011;383;48.766;9.270;2023-08-06T01:44:27;16.13;;;9.17;;
801;SDS011;383;48.766;9.270;2023-08-06T01:46:54;17.80;;;9.57;;
801;SDS011;383;48.766;9.270;2023-08-06T01:49:21;17.83;;;10.27;;
801;SDS011;383;48.766;9.270;2023-08-06T01:51:47;17.20;;;9.60;;
801;SDS011;383;48.766;9.270;2023-08-06T01:54:14;13.90;;;8.80;;
801;SDS011;383;48.766;9.270;2023-08-06T01:56:42;13.00;;;8.90;;
801;SDS011;383;48.766;9.270;2023-08-06T01:59:09;11.93;;;7.13;;
801;SDS011;383;48.766;9.270;2023-08-06T02:01:35;9.90;;;6.50;;
801;SDS011;383;48.766;9.270;2023-08-06T02:04:02;13.40;;;6.70;;
801;SDS011;383;48.766;9.270;2023-08-06T02:06:29;9.60;;;5.83;;
801;SDS011;383;48.766;9.270;2023-08-06T02:08:56;11.60;;;6.30;;
801;SDS011;383;48.766;9.270;2023-08-06T02:11:22;12.90;;;5.80;;
801;SDS011;383;48.766;9.270;2023-08-06T02:13:50;6.90;;;4.70;;
801;SDS011;383;48.766;9.270;2023-08-06T02:16:17;7.20;;;4.90;;
801;SDS011;383;48.766;9.270;2023-08-06T02:18:44;8.13;;;4.63;;
801;SDS011;383;48.766;9.270;2023-08-06T02:21:10;8.30;;;5.10;;
801;SDS011;383;48.766;9.270;2023-08-06T02:23:37;7.70;;;5.60;;
801;SDS011;383;48.766;9.270;2023-08-06T02:26:04;5.30;;;3.97;;
801;SDS011;383;48.766;9.270;2023-08-06T02:28:31;6.00;;;3.87;;
801;SDS011;383;48.766;9.270;2023-08-06T02:30:59;5.70;;;3.73;;
801;SDS011;383;48.766;9.270;2023-08-06T02:33:26;8.20;;;3.40;;
801;SDS011;383;48.766;9.270;2023-08-06T02:35:58;4.00;;;3.43;;
801;SDS011;383;48.766;9.270;2023-08-06T02:38:25;3.73;;;3.07;;
801;SDS011;383;48.766;9.270;2023-08-06T02:40:52;4.43;;;3.10;;
801;SDS011;383;48.766;9.270;2023-08-06T02:43:18;5.90;;;3.13;;
801;SDS011;383;48.766;9.270;2023-08-06T02:45:45;5.77;;;2.87;;
801;SDS011;383;48.766;9.270;2023-08-06T02:48:13;6.07;;;2.97;;
801;SDS011;383;48.766;9.270;2023-08-06T02:50:40;4.70;;;3.20;;
801;SDS011;383;48.766;9.270;2023-08-06T02:53:08;7.77;;;3.03;;
801;SDS011;383;48.766;9.270;2023-08-06T02:55:35;4.40;;;2.90;;
801;SDS011;383;48.766;9.270;2023-08-06T02:58:02;5.27;;;3.10;;
801;SDS011;383;48.766;9.270;2023-08-06T03:00:29;5.40;;;2.87;;
801;SDS011;383;48.766;9.270;2023-08-06T03:02:55;10.23;;;3.63;;
801;SDS011;383;48.766;9.270;2023-08-06T03:05:23;5.47;;;2.73;;
801;SDS011;383;48.766;9.270;2023-08-06T03:07:50;6.50;;;3.10;;
801;SDS011;383;48.766;9.270;2023-08-06T03:10:17;9.10;;;3.20;;
801;SDS011;383;48.766;9.270;2023-08-06T03:12:44;4.30;;;2.43;;
801;SDS011;383;48.766;9.270;2023-08-06T03:15:11;3.60;;;2.40;;
801;SDS011;383;48.766;9.270;2023-08-06T03:17:38;3.47;;;2.70;;
801;SDS011;383;48.766;9.270;2023-08-06T03:20:05;4.93;;;2.10;;
801;SDS011;383;48.766;9.270;2023-08-06T03:22:34;6.37;;;3.50;;
801;SDS011;383;48.766;9.270;2023-08-06T03:25:00;3.30;;;2.60;;
801;SDS011;383;48.766;9.270;2023-08-06T03:27:27;6.87;;;2.47;;
801;SDS011;383;48.766;9.270;2023-08-06T03:29:54;4.40;;;2.87;;
801;SDS011;383;48.766;9.270;2023-08-06T03:32:20;3.30;;;2.57;;
801;SDS011;383;48.766;9.270;2023-08-06T03:34:47;5.93;;;2.63;;
801;SDS011;383;48.766;9.270;2023-08-06T03:37:14;5.47;;;3.00;;
801;SDS011;383;48.766;9.270;2023-08-06T03:39:42;6.30;;;2.90;;
801;SDS011;383;48.766;9.270;2023-08-06T03:42:09;3.57;;;2.73;;
801;SDS011;383;48.766;9.270;2023-08-06T03:44:35;4.97;;;2.70;;
801;SDS011;383;48.766;9.270;2023-08-06T03:47:02;8.57;;;2.83;;
801;SDS011;383;48.766;9.270;2023-08-06T03:49:29;2.83;;;2.33;;
801;SDS011;383;48.766;9.270;2023-08-06T03:51:56;4.20;;;2.57;;
801;SDS011;383;48.766;9.270;2023-08-06T03:54:22;10.63;;;2.73;;
801;SDS011;383;48.766;9.270;2023-08-06T03:56:50;4.47;;;2.80;;
801;SDS011;383;48.766;9.270;2023-08-06T03:59:17;6.67;;;2.50;;
801;SDS011;383;48.766;9.270;2023-08-06T04:01:44;4.70;;;2.83;;
801;SDS011;383;48.766;9.270;2023-08-06T04:04:10;3.90;;;2.70;;
801;SDS011;383;48.766;9.270;2023-08-06T04:06:37;6.47;;;2.77;;
801;SDS011;383;48.766;9.270;2023-08-06T04:09:04;3.53;;;2.53;;
801;SDS011;383;48.766;9.270;2023-08-06T04:11:30;5.40;;;2.97;;
801;SDS011;383;48.766;9.270;2023-08-06T04:13:58;3.73;;;3.00;;
801;SDS011;383;48.766;9.270;2023-08-06T04:16:25;3.97;;;2.90;;
801;SDS011;383;48.766;9.270;2023-08-06T04:18:52;5.70;;;2.50;;
801;SDS011;383;48.766;9.270;2023-08-06T04:21:20;7.50;;;2.67;;
801;SDS011;383;48.766;9.270;2023-08-06T04:23:47;3.93;;;2.30;;
801;SDS011;383;48.766;9.270;2023-08-06T04:26:13;4.50;;;3.13;;
801;SDS011;383;48.766;9.270;2023-08-06T04:28:40;5.17;;;2.73;;
801;SDS011;383;48.766;9.270;2023-08-06T04:31:08;4.57;;;2.53;;
801;SDS011;383;48.766;9.270;2023-08-06T04:33:35;4.17;;;2.63;;
801;SDS011;383;48.766;9.270;2023-08-06T04:36:02;3.57;;;2.47;;
801;SDS011;383;48.766;9.270;2023-08-06T04:38:29;5.43;;;2.63;;
801;SDS011;383;48.766;9.270;2023-08-06T04:40:55;6.30;;;2.87;;
801;SDS011;383;48.766;9.270;2023-08-06T04:43:22;3.97;;;2.40;;
801;SDS011;383;48.766;9.270;2023-08-06T04:45:49;4.40;;;2.60;;
801;SDS011;383;48.766;9.270;2023-08-06T04:48:19;3.10;;;2.17;;
801;SDS011;383;48.766;9.270;2023-08-06T04:50:46;4.80;;;2.63;;
801;SDS011;383;48.766;9.270;2023-08-06T04:53:14;4.30;;;2.90;;
801;SDS011;383;48.766;9.270;2023-08-06T04:55:42;5.10;;;3.03;;
801;SDS011;383;48.766;9.270;2023-08-06T04:58:09;8.37;;;2.90;;
801;SDS011;383;48.766;9.270;2023-08-06T05:00:36;4.73;;;3.03;;
801;SDS011;383;48.766;9.270;2023-08-06T05:03:03;3.30;;;2.50;;
801;SDS011;383;48.766;9.270;2023-08-06T05:05:31;3.30;;;2.50;;
801;SDS011;383;48.766;9.270;2023-08-06T05:07:57;4.37;;;2.07;;
801;SDS011;383;48.766;9.270;2023-08-06T05:10:24;4.07;;;2.50;;
801;SDS011;383;48.766;9.270;2023-08-06T05:12:51;4.37;;;2.77;;
801;SDS011;383;48.766;9.270;2023-08-06T05:15:18;6.80;;;2.47;;
801;SDS011;383;48.766;9.270;2023-08-06T05:17:45;5.03;;;2.93;;
801;SDS011;383;48.766;9.270;2023-08-06T05:20:11;4.13;;;2.70;;
801;SDS011;383;48.766;9.270;2023-08-06T05:22:39;3.60;;;2.57;;
801;SDS011;383;48.766;9.270;2023-08-06T05:25:07;3.60;;;1.90;;
801;SDS011;383;48.766;9.270;2023-08-06T05:27:33;5.20;;;2.17;;
801;SDS011;383;48.766;9.270;2023-08-06T05:30:00;4.07;;;2.23;;
801;SDS011;383;48.766;9.270;2023-08-06T05:32:27;3.90;;;2.47;;
801;SDS011;383;48.766;9.270;2023-08-06T05:34:53;4.37;;;2.27;;
801;SDS011;383;48.766;9.270;2023-08-06T05:37:20;6.63;;;2.23;;
801;SDS011;383;48.766;9.270;2023-08-06T05:39:48;3.17;;;1.80;;
801;SDS011;383;48.766;9.270;2023-08-06T05:42:15;3.03;;;1.70;;
801;SDS011;383;48.766;9.270;2023-08-06T05:44:42;4.17;;;1.67;;
801;SDS011;383;48.766;9.270;2023-08-06T05:47:09;3.67;;;2.13;;
801;SDS011;383;48.766;9.270;2023-08-06T05:49:35;3.23;;;1.40;;
801;SDS011;383;48.766;9.270;2023-08-06T05:52:03;3.07;;;1.70;;
801;SDS011;383;48.766;9.270;2023-08-06T05:54:33;1.53;;;1.30;;
801;SDS011;383;48.766;9.270;2023-08-06T05:57:01;2.37;;;1.80;;
801;SDS011;383;48.766;9.270;2023-08-06T05:59:28;2.30;;;1.50;;
801;SDS011;383;48.766;9.270;2023-08-06T06:01:54;2.23;;;1.30;;
801;SDS011;383;48.766;9.270;2023-08-06T06:04:21;7.00;;;1.83;;
801;SDS011;383;48.766;9.270;2023-08-06T06:06:48;3.13;;;1.30;;
801;SDS011;383;48.766;9.270;2023-08-06T06:09:15;3.70;;;1.40;;
801;SDS011;383;48.766;9.270;2023-08-06T06:11:41;5.23;;;1.83;;
801;SDS011;383;48.766;9.270;2023-08-06T06:14:09;1.67;;;1.20;;
801;SDS011;383;48.766;9.270;2023-08-06T06:16:36;4.73;;;2.00;;
801;SDS011;383;48.766;9.270;2023-08-06T06:19:03;1.80;;;1.00;;
801;SDS011;383;48.766;9.270;2023-08-06T06:21:29;2.80;;;1.20;;
801;SDS011;383;48.766;9.270;2023-08-06T06:23:56;7.77;;;1.40;;
801;SDS011;383;48.766;9.270;2023-08-06T06:26:23;1.37;;;1.10;;
801;SDS011;383;48.766;9.270;2023-08-06T06:28:49;2.77;;;1.20;;
801;SDS011;383;48.766;9.270;2023-08-06T06:31:17;1.40;;;0.90;;
801;SDS011;383;48.766;9.270;2023-08-06T06:33:44;1.40;;;1.00;;
801;SDS011;383;48.766;9.270;2023-08-06T06:36:11;2.37;;;1.60;;
801;SDS011;383;48.766;9.270;2023-08-06T06:38:37;2.27;;;1.10;;
801;SDS011;383;48.766;9.270;2023-08-06T06:41:04;6.20;;;1.00;;
801;SDS011;383;48.766;9.270;2023-08-06T06:43:31;2.53;;;1.20;;
801;SDS011;383;48.766;9.270;2023-08-06T06:45:58;2.77;;;1.57;;
801;SDS011;383;48.766;9.270;2023-08-06T06:48:27;1.63;;;1.00;;
801;SDS011;383;48.766;9.270;2023-08-06T06:50:55;2.83;;;1.17;;
801;SDS011;383;48.766;9.270;2023-08-06T06:53:22;4.37;;;1.93;;
801;SDS011;383;48.766;9.270;2023-08-06T06:55:52;5.20;;;1.40;;
801;SDS011;383;48.766;9.270;2023-08-06T06:58:19;3.10;;;1.20;;
801;SDS011;383;48.766;9.270;2023-08-06T07:00:46;4.50;;;1.23;;
801;SDS011;383;48.766;9.270;2023-08-06T07:03:13;2.10;;;1.30;;
801;SDS011;383;48.766;9.270;2023-08-06T07:05:41;3.00;;;0.90;;
801;SDS011;383;48.766;9.270;2023-08-06T07:08:09;1.70;;;0.93;;
801;SDS011;383;48.766;9.270;2023-08-06T07:10:36;2.70;;;1.97;;
801;SDS011;383;48.766;9.270;2023-08-06T07:13:03;1.67;;;1.07;;
801;SDS011;383;48.766;9.270;2023-08-06T07:15:29;3.27;;;1.20;;
801;SDS011;383;48.766;9.270;2023-08-06T07:17:56;5.10;;;1.30;;
801;SDS011;383;48.766;9.270;2023-08-06T07:20:23;1.10;;;1.00;;
801;SDS011;383;48.766;9.270;2023-08-06T07:22:51;1.70;;;0.90;;
801;SDS011;383;48.766;9.270;2023-08-06T07:25:18;4.63;;;1.70;;
801;SDS011;383;48.766;9.270;2023-08-06T07:27:44;3.83;;;1.83;;
801;SDS011;383;48.766;9.270;2023-08-06T07:30:11;2.20;;;1.10;;
801;SDS011;383;48.766;9.270;2023-08-06T07:32:38;1.60;;;0.83;;
801;SDS011;383;48.766;9.270;2023-08-06T07:35:05;3.93;;;1.67;;
801;SDS011;383;48.766;9.270;2023-08-06T07:37:34;4.97;;;2.20;;
801;SDS011;383;48.766;9.270;2023-08-06T07:40:02;4.03;;;2.37;;
801;SDS011;383;48.766;9.270;2023-08-06T07:42:30;9.03;;;1.80;;
801;SDS011;383;48.766;9.270;2023-08-06T07:44:57;2.43;;;1.20;;
801;SDS011;383;48.766;9.270;2023-08-06T07:47:24;1.20;;;1.13;;
801;SDS011;383;48.766;9.270;2023-08-06T07:49:51;3.03;;;0.83;;
801;SDS011;383;48.766;9.270;2023-08-06T07:52:18;1.13;;;0.80;;
801;SDS011;383;48.766;9.270;2023-08-06T07:54:45;0.73;;;0.60;;
801;SDS011;383;48.766;9.270;2023-08-06T07:57:13;1.53;;;0.73;;
801;SDS011;383;48.766;9.270;2023-08-06T07:59:40;0.80;;;0.60;;
801;SDS011;383;48.766;9.270;2023-08-06T08:02:07;1.00;;;0.60;;
801;SDS011;383;48.766;9.270;2023-08-06T08:04:33;1.23;;;0.60;;
801;SDS011;383;48.766;9.270;2023-08-06T08:07:00;1.03;;;0.67;;
801;SDS011;383;48.766;9.270;2023-08-06T08:09:27;1.73;;;0.87;;
801;SDS011;383;48.766;9.270;2023-08-06T08:11:54;0.60;;;0.50;;
801;SDS011;383;48.766;9.270;2023-08-06T08:14:22;3.90;;;0.80;;
801;SDS011;383;48.766;9.270;2023-08-06T08:16:49;5.60;;;0.50;;
801;SDS011;383;48.766;9.270;2023-08-06T08:19:16;2.37;;;0.63;;
801;SDS011;383;48.766;9.270;2023-08-06T08:21:43;1.60;;;0.60;;
801;SDS011;383;48.766;9.270;2023-08-06T08:24:09;0.73;;;0.60;;
801;SDS011;383;48.766;9.270;2023-08-06T08:26:36;1.10;;;0.90;;
801;SDS011;383;48.766;9.270;2023-08-06T08:29:03;2.00;;;0.60;;
801;SDS011;383;48.766;9.270;2023-08-06T08:31:31;0.83;;;0.53;;
801;SDS011;383;48.766;9.270;2023-08-06T08:34:04;0.60;;;0.50;;
801;SDS011;383;48.766;9.270;2023-08-06T08:36:30;0.60;;;0.60;;
801;SDS011;383;48.766;9.270;2023-08-06T08:38:57;0.60;;;0.60;;
801;SDS011;383;48.766;9.270;2023-08-06T08:41:24;0.60;;;0.60;;
801;SDS011;383;48.766;9.270;2023-08-06T08:43:51;0.73;;;0.70;;
801;SDS011;383;48.766;9.270;2023-08-06T08:46:18;1.07;;;0.50;;
801;SDS011;383;48.766;9.270;2023-08-06T08:48:47;0.60;;;0.50;;
801;SDS011;383;48.766;9.270;2023-08-06T08:51:14;0.70;;;0.50;;
801;SDS011;383;48.766;9.270;2023-08-06T08:53:41;1.20;;;1.17;;
801;SDS011;383;48.766;9.270;2023-08-06T08:56:11;5.03;;;1.10;;
801;SDS011;383;48.766;9.270;2023-08-06T08:58:39;0.90;;;0.80;;
801;SDS011;383;48.766;9.270;2023-08-06T09:01:06;1.17;;;0.60;;
801;SDS011;383;48.766;9.270;2023-08-06T09:03:34;0.83;;;0.60;;
801;SDS011;383;48.766;9.270;2023-08-06T09:06:04;0.50;;;0.50;;
801;SDS011;383;48.766;9.270;2023-08-06T09:08:34;0.63;;;0.53;;
801;SDS011;383;48.766;9.270;2023-08-06T09:11:04;0.83;;;0.57;;
801;SDS011;383;48.766;9.270;2023-08-06T09:13:31;0.60;;;0.60;;
801;SDS011;383;48.766;9.270;2023-08-06T09:15:58;0.70;;;0.63;;
801;SDS011;383;48.766;9.270;2023-08-06T09:18:25;0.73;;;0.60;;
801;SDS011;383;48.766;9.270;2023-08-06T09:20:53;2.20;;;0.73;;
801;SDS011;383;48.766;9.270;2023-08-06T09:23:21;1.10;;;0.80;;
801;SDS011;383;48.766;9.270;2023-08-06T09:25:54;0.87;;;0.87;;
801;SDS011;383;48.766;9.270;2023-08-06T09:28:21;1.80;;;1.30;;
801;SDS011;383;48.766;9.270;2023-08-06T09:30:49;2.83;;;2.10;;
801;SDS011;383;48.766;9.270;2023-08-06T09:33:17;4.73;;;1.50;;
801;SDS011;383;48.766;9.270;2023-08-06T09:35:45;0.70;;;0.60;;
801;SDS011;383;48.766;9.270;2023-08-06T09:38:13;0.60;;;0.60;;
801;SDS011;383;48.766;9.270;2023-08-06T09:40:41;0.50;;;0.47;;
801;SDS011;383;48.766;9.270;2023-08-06T09:43:07;0.53;;;0.53;;
801;SDS011;383;48.766;9.270;2023-08-06T09:45:35;0.80;;;0.60;;
801;SDS011;383;48.766;9.270;2023-08-06T09:48:02;0.70;;;0.60;;
801;SDS011;383;48.766;9.270;2023-08-06T09:50:31;1.17;;;0.70;;
801;SDS011;383;48.766;9.270;2023-08-06T09:53:01;0.47;;;0.40;;
801;SDS011;383;48.766;9.270;2023-08-06T09:55:29;1.07;;;0.97;;
801;SDS011;383;48.766;9.270;2023-08-06T09:57:58;0.80;;;0.50;;
801;SDS011;383;48.766;9.270;2023-08-06T10:00:25;1.10;;;0.60;;
801;SDS011;383;48.766;9.270;2023-08-06T10:02:53;0.80;;;0.70;;
801;SDS011;383;48.766;9.270;2023-08-06T10:05:21;1.00;;;0.70;;
801;SDS011;383;48.766;9.270;2023-08-06T10:07:48;0.70;;;0.60;;
801;SDS011;383;48.766;9.270;2023-08-06T10:10:16;2.53;;;0.80;;
801;SDS011;383;48.766;9.270;2023-08-06T10:12:43;0.90;;;0.83;;
801;SDS011;383;48.766;9.270;2023-08-06T10:15:15;0.57;;;0.53;;
801;SDS011;383;48.766;9.270;2023-08-06T10:17:44;0.50;;;0.40;;
801;SDS011;383;48.766;9.270;2023-08-06T10:20:13;0.60;;;0.50;;
801;SDS011;383;48.766;9.270;2023-08-06T10:22:42;0.70;;;0.53;;
801;SDS011;383;48.766;9.270;2023-08-06T10:25:09;0.60;;;0.50;;
801;SDS011;383;48.766;9.270;2023-08-06T10:27:39;0.50;;;0.50;;
801;SDS011;383;48.766;9.270;2023-08-06T10:30:23;0.60;;;0.50;;
801;SDS011;383;48.766;9.270;2023-08-06T10:32:51;0.67;;;0.50;;
801;SDS011;383;48.766;9.270;2023-08-06T10:35:31;0.60;;;0.50;;
801;SDS011;383;48.766;9.270;2023-08-06T10:38:05;2.37;;;0.70;;
801;SDS011;383;48.766;9.270;2023-08-06T10:40:33;0.63;;;0.60;;
801;SDS011;383;48.766;9.270;2023-08-06T10:43:01;4.20;;;0.80;;
801;SDS011;383;48.766;9.270;2023-08-06T10:45:30;0.50;;;0.50;;
801;SDS011;383;48.766;9.270;2023-08-06T10:48:01;1.00;;;0.60;;
801;SDS011;383;48.766;9.270;2023-08-06T10:50:28;1.70;;;1.13;;
801;SDS011;383;48.766;9.270;2023-08-06T10:52:56;1.33;;;0.67;;
801;SDS011;383;48.766;9.270;2023-08-06T10:55:24;0.60;;;0.50;;
801;SDS011;383;48.766;9.270;2023-08-06T10:57:51;0.67;;;0.60;;
801;SDS011;383;48.766;9.270;2023-08-06T11:00:18;3.10;;;1.63;;
801;SDS011;383;48.766;9.270;2023-08-06T11:02:47;3.90;;;2.37;;
801;SDS011;383;48.766;9.270;2023-08-06T11:05:15;1.23;;;0.70;;
801;SDS011;383;48.766;9.270;2023-08-06T11:07:42;0.70;;;0.50;;
801;SDS011;383;48.766;9.270;2023-08-06T11:10:09;0.70;;;0.60;;
801;SDS011;383;48.766;9.270;2023-08-06T11:12:37;1.27;;;0.60;;
801;SDS011;383;48.766;9.270;2023-08-06T11:15:05;0.93;;;0.70;;
801;SDS011;383;48.766;9.270;2023-08-06T11:17:33;1.20;;;1.00;;
801;SDS011;383;48.766;9.270;2023-08-06T11:20:02;2.20;;;0.70;;
801;SDS011;383;48.766;9.270;2023-08-06T11:22:29;0.90;;;0.60;;
801;SDS011;383;48.766;9.270;2023-08-06T11:24:56;0.80;;;0.73;;
801;SDS011;383;48.766;9.270;2023-08-06T11:27:26;1.43;;;0.83;;
801;SDS011;383;48.766;9.270;2023-08-06T11:29:54;1.93;;;0.83;;
801;SDS011;383;48.766;9.270;2023-08-06T11:32:20;1.40;;;0.57;;
801;SDS011;383;48.766;9.270;2023-08-06T11:34:47;0.77;;;0.70;;
801;SDS011;383;48.766;9.270;2023-08-06T11:37:15;0.77;;;0.63;;
801;SDS011;383;48.766;9.270;2023-08-06T11:39:44;0.90;;;0.87;;
801;SDS011;383;48.766;9.270;2023-08-06T11:42:12;1.87;;;1.20;;
801;SDS011;383;48.766;9.270;2023-08-06T11:44:40;1.53;;;0.90;;
801;SDS011;383;48.766;9.270;2023-08-06T11:47:11;2.10;;;1.33;;
801;SDS011;383;48.766;9.270;2023-08-06T11:49:39;1.17;;;1.00;;
801;SDS011;383;48.766;9.270;2023-08-06T11:52:17;3.50;;;1.57;;
801;SDS011;383;48.766;9.270;2023-08-06T11:54:45;1.77;;;0.80;;
801;SDS011;383;48.766;9.270;2023-08-06T11:57:13;1.60;;;0.97;;
801;SDS011;383;48.766;9.270;2023-08-06T11:59:41;1.67;;;1.10;;
801;SDS011;383;48.766;9.270;2023-08-06T12:02:08;1.80;;;1.30;;
801;SDS011;383;48.766;9.270;2023-08-06T12:07:40;6.03;;;1.57;;
801;SDS011;383;48.766;9.270;2023-08-06T12:10:24;2.43;;;1.00;;
801;SDS011;383;48.766;9.270;2023-08-06T12:12:52;1.20;;;1.10;;
801;SDS011;383;48.766;9.270;2023-08-06T12:15:19;1.17;;;1.10;;
801;SDS011;383;48.766;9.270;2023-08-06T12:17:46;5.03;;;1.17;;
801;SDS011;383;48.766;9.270;2023-08-06T12:20:13;1.70;;;1.10;;
801;SDS011;383;48.766;9.270;2023-08-06T12:22:41;1.47;;;1.00;;
801;SDS011;383;48.766;9.270;2023-08-06T12:25:08;2.63;;;1.10;;
801;SDS011;383;48.766;9.270;2023-08-06T12:27:37;1.87;;;1.17;;
801;SDS011;383;48.766;9.270;2023-08-06T12:30:05;1.90;;;1.20;;
801;SDS011;383;48.766;9.270;2023-08-06T12:32:33;1.17;;;0.97;;
801;SDS011;383;48.766;9.270;2023-08-06T12:35:00;1.10;;;1.00;;
801;SDS011;383;48.766;9.270;2023-08-06T12:37:27;1.53;;;1.10;;
801;SDS011;383;48.766;9.270;2023-08-06T12:39:56;1.30;;;1.10;;
801;SDS011;383;48.766;9.270;2023-08-06T12:42:22;1.77;;;1.20;;
801;SDS011;383;48.766;9.270;2023-08-06T12:44:49;1.27;;;1.23;;
801;SDS011;383;48.766;9.270;2023-08-06T12:47:16;6.77;;;1.20;;
801;SDS011;383;48.766;9.270;2023-08-06T12:49:43;2.40;;;1.33;;
801;SDS011;383;48.766;9.270;2023-08-06T12:52:10;1.60;;;1.10;;
801;SDS011;383;48.766;9.270;2023-08-06T12:54:39;5.40;;;1.40;;
801;SDS011;383;48.766;9.270;2023-08-06T12:57:09;4.13;;;1.27;;
801;SDS011;383;48.766;9.270;2023-08-06T12:59:36;5.23;;;1.10;;
801;SDS011;383;48.766;9.270;2023-08-06T13:02:02;1.10;;;0.90;;
801;SDS011;383;48.766;9.270;2023-08-06T13:04:29;2.60;;;0.90;;
801;SDS011;383;48.766;9.270;2023-08-06T13:06:56;1.33;;;1.03;;
801;SDS011;383;48.766;9.270;2023-08-06T13:09:23;4.17;;;1.20;;
801;SDS011;383;48.766;9.270;2023-08-06T13:11:51;1.87;;;1.10;;
801;SDS011;383;48.766;9.270;2023-08-06T13:14:19;1.17;;;1.10;;
801;SDS011;383;48.766;9.270;2023-08-06T13:16:46;2.83;;;1.70;;
801;SDS011;383;48.766;9.270;2023-08-06T13:19:12;2.53;;;0.90;;
801;SDS011;383;48.766;9.270;2023-08-06T13:21:58;3.73;;;1.60;;
801;SDS011;383;48.766;9.270;2023-08-06T13:24:27;1.20;;;0.90;;
801;SDS011;383;48.766;9.270;2023-08-06T13:26:53;1.50;;;1.00;;
801;SDS011;383;48.766;9.270;2023-08-06T13:29:22;1.90;;;1.20;;
801;SDS011;383;48.766;9.270;2023-08-06T13:31:48;1.90;;;1.20;;
801;SDS011;383;48.766;9.270;2023-08-06T13:34:15;1.60;;;1.00;;
801;SDS011;383;48.766;9.270;2023-08-06T13:36:42;2.03;;;1.20;;
801;SDS011;383;48.766;9.270;2023-08-06T13:39:09;0.87;;;0.80;;
801;SDS011;383;48.766;9.270;2023-08-06T13:41:39;7.60;;;1.20;;
801;SDS011;383;48.766;9.270;2023-08-06T13:44:06;1.67;;;1.17;;
801;SDS011;383;48.766;9.270;2023-08-06T13:46:34;1.00;;;0.80;;
801;SDS011;383;48.766;9.270;2023-08-06T13:49:01;2.73;;;0.97;;
801;SDS011;383;48.766;9.270;2023-08-06T13:51:30;1.90;;;1.10;;
801;SDS011;383;48.766;9.270;2023-08-06T13:54:00;1.13;;;0.80;;
801;SDS011;383;48.766;9.270;2023-08-06T13:56:27;2.27;;;1.10;;
801;SDS011;383;48.766;9.270;2023-08-06T13:58:54;0.70;;;0.70;;
801;SDS011;383;48.766;9.270;2023-08-06T14:01:21;0.97;;;0.87;;
801;SDS011;383;48.766;9.270;2023-08-06T14:03:49;1.20;;;0.70;;
801;SDS011;383;48.766;9.270;2023-08-06T14:06:16;1.57;;;1.03;;
801;SDS011;383;48.766;9.270;2023-08-06T14:08:42;0.60;;;0.57;;
801;SDS011;383;48.766;9.270;2023-08-06T14:11:08;4.10;;;0.90;;
801;SDS011;383;48.766;9.270;2023-08-06T14:13:35;0.80;;;0.70;;
801;SDS011;383;48.766;9.270;2023-08-06T14:16:02;1.07;;;0.90;;
801;SDS011;383;48.766;9.270;2023-08-06T14:18:29;1.37;;;1.00;;
801;SDS011;383;48.766;9.270;2023-08-06T14:20:57;5.30;;;1.10;;
801;SDS011;383;48.766;9.270;2023-08-06T14:23:24;2.40;;;0.90;;
801;SDS011;383;48.766;9.270;2023-08-06T14:25:50;2.50;;;0.93;;
801;SDS011;383;48.766;9.270;2023-08-06T14:28:17;0.93;;;0.70;;
801;SDS011;383;48.766;9.270;2023-08-06T14:30:44;1.67;;;1.00;;
801;SDS011;383;48.766;9.270;2023-08-06T14:33:10;2.67;;;0.87;;
801;SDS011;383;48.766;9.270;2023-08-06T14:35:37;1.90;;;0.93;;
801;SDS011;383;48.766;9.270;2023-08-06T14:38:05;5.37;;;2.40;;
801;SDS011;383;48.766;9.270;2023-08-06T14:40:32;1.53;;;1.00;;
801;SDS011;383;48.766;9.270;2023-08-06T14:43:02;4.43;;;1.00;;
801;SDS011;383;48.766;9.270;2023-08-06T14:45:29;1.40;;;0.97;;
801;SDS011;383;48.766;9.270;2023-08-06T14:47:56;3.00;;;1.80;;
801;SDS011;383;48.766;9.270;2023-08-06T14:50:23;1.77;;;1.23;;
801;SDS011;383;48.766;9.270;2023-08-06T14:52:49;1.00;;;0.80;;
801;SDS011;383;48.766;9.270;2023-08-06T14:55:26;0.80;;;0.80;;
801;SDS011;383;48.766;9.270;2023-08-06T14:57:53;1.67;;;1.07;;
801;SDS011;383;48.766;9.270;2023-08-06T15:00:20;0.80;;;0.73;;
801;SDS011;383;48.766;9.270;2023-08-06T15:02:47;5.97;;;1.10;;
801;SDS011;383;48.766;9.270;2023-08-06T15:05:35;1.30;;;1.00;;
801;SDS011;383;48.766;9.270;2023-08-06T15:08:20;1.57;;;0.90;;
801;SDS011;383;48.766;9.270;2023-08-06T15:11:12;1.37;;;0.90;;
801;SDS011;383;48.766;9.270;2023-08-06T15:16:39;0.90;;;0.90;;
801;SDS011;383;48.766;9.270;2023-08-06T15:19:06;1.63;;;0.97;;
801;SDS011;383;48.766;9.270;2023-08-06T15:21:33;0.90;;;0.80;;
801;SDS011;383;48.766;9.270;2023-08-06T15:24:00;0.80;;;0.80;;
801;SDS011;383;48.766;9.270;2023-08-06T15:26:28;0.87;;;0.83;;
801;SDS011;383;48.766;9.270;2023-08-06T15:28:54;1.30;;;0.70;;
801;SDS011;383;48.766;9.270;2023-08-06T15:31:22;1.00;;;0.80;;
801;SDS011;383;48.766;9.270;2023-08-06T15:33:48;0.77;;;0.70;;
801;SDS011;383;48.766;9.270;2023-08-06T15:36:15;1.43;;;0.90;;
801;SDS011;383;48.766;9.270;2023-08-06T15:38:42;1.70;;;1.20;;
801;SDS011;383;48.766;9.270;2023-08-06T15:41:08;1.13;;;0.93;;
801;SDS011;383;48.766;9.270;2023-08-06T15:43:36;1.60;;;0.97;;
801;SDS011;383;48.766;9.270;2023-08-06T15:46:03;5.57;;;1.27;;
801;SDS011;383;48.766;9.270;2023-08-06T15:48:30;1.03;;;1.00;;
801;SDS011;383;48.766;9.270;2023-08-06T15:50:57;1.43;;;0.70;;